Time;durP1;ratioP1;P1;durP2;ratioP2;P2;SDS_P1;SDS_P2;PMS_P1;PMS_P2;Temp;Humidity;BMP_temperature;BMP_pressure;BME280_temperature;BME280_humidity;BME280_pressure;Samples;Min_cycle;Max_cycle;Signal;HPM_P1;HPM_P2
2022/10/20 00:00:09;;;;;;;4.70;3.00;;;8.40;99.90;;;;;;4194102;28;20090;-62
2022/10/20 00:02:10;;;;;;;6.77;3.07;;;8.40;99.90;;;;;;4194821;28;20025;-61
2022/10/20 00:04:11;;;;;;;5.13;2.47;;;8.30;99.90;;;;;;4193600;28;20472;-61
2022/10/20 00:06:15;;;;;;;5.33;3.03;;;8.30;99.90;;;;;;4194079;28;20537;-62
2022/10/20 00:08:17;;;;;;;6.20;3.83;;;8.30;99.90;;;;;;4193572;28;20482;-63
2022/10/20 00:10:18;;;;;;;5.17;2.40;;;8.20;99.90;;;;;;4194704;28;20032;-61
2022/10/20 00:12:19;;;;;;;6.60;2.80;;;8.20;99.90;;;;;;4193060;28;20102;-61
2022/10/20 00:14:20;;;;;;;4.93;2.80;;;8.20;99.90;;;;;;4201050;28;20106;-61
2022/10/20 00:16:22;;;;;;;4.50;3.00;;;8.10;99.90;;;;;;4210537;28;20032;-62
2022/10/20 00:18:24;;;;;;;5.07;2.50;;;8.10;99.90;;;;;;4209223;28;20032;-62
2022/10/20 00:20:25;;;;;;;5.67;3.63;;;8.10;99.90;;;;;;4210449;28;20081;-61
2022/10/20 00:22:26;;;;;;;4.53;2.80;;;8.00;99.90;;;;;;4210583;28;20085;-61
2022/10/20 00:24:27;;;;;;;4.83;2.93;;;8.00;99.90;;;;;;4205163;28;20492;-61
2022/10/20 00:26:30;;;;;;;5.73;2.60;;;8.00;99.90;;;;;;4193768;28;20087;-60
2022/10/20 00:28:32;;;;;;;3.77;2.53;;;8.00;99.90;;;;;;4199148;28;20037;-61
2022/10/20 00:30:34;;;;;;;5.53;2.90;;;8.00;99.90;;;;;;4194556;28;20025;-62
2022/10/20 00:32:35;;;;;;;6.90;3.10;;;8.00;99.90;;;;;;4178077;28;20025;-61
2022/10/20 00:34:36;;;;;;;5.37;2.90;;;7.90;99.90;;;;;;4176481;28;20029;-61
2022/10/20 00:36:38;;;;;;;6.07;3.20;;;7.80;99.90;;;;;;4177982;28;20053;-61
2022/10/20 00:38:40;;;;;;;6.97;2.80;;;7.80;99.90;;;;;;4178600;28;20048;-61
2022/10/20 00:40:41;;;;;;;3.37;2.37;;;7.80;99.90;;;;;;4181341;28;20033;-64
2022/10/20 00:42:46;;;;;;;4.70;2.67;;;7.70;99.90;;;;;;4180028;28;20032;-63
2022/10/20 00:44:49;;;;;;;5.43;3.70;;;7.70;99.90;;;;;;4180574;28;20090;-63
2022/10/20 00:46:50;;;;;;;6.70;2.67;;;7.70;99.90;;;;;;4180111;28;20074;-64
2022/10/20 00:48:58;;;;;;;4.83;2.70;;;7.70;99.90;;;;;;4193982;28;20097;-62
2022/10/20 00:50:59;;;;;;;5.20;2.53;;;7.60;99.90;;;;;;4179048;28;20044;-62
2022/10/20 00:53:01;;;;;;;4.43;2.37;;;7.60;99.90;;;;;;4197234;28;20074;-64
2022/10/20 00:55:03;;;;;;;5.63;3.13;;;7.60;99.90;;;;;;4196847;28;20017;-62
2022/10/20 00:57:05;;;;;;;4.17;2.47;;;7.50;99.90;;;;;;4197312;28;20029;-64
2022/10/20 00:59:07;;;;;;;5.37;2.70;;;7.50;99.90;;;;;;4196834;28;20115;-62
2022/10/20 01:01:09;;;;;;;4.43;2.97;;;7.40;99.90;;;;;;4178142;28;20037;-62
2022/10/20 01:03:16;;;;;;;5.67;2.57;;;7.40;99.90;;;;;;4196122;28;20032;-63
2022/10/20 01:05:18;;;;;;;5.13;2.63;;;7.30;99.90;;;;;;4195425;28;20491;-63
2022/10/20 01:07:19;;;;;;;5.83;2.23;;;7.30;99.90;;;;;;4197397;28;20086;-63
2022/10/20 01:09:20;;;;;;;6.67;2.63;;;7.30;99.90;;;;;;4196161;28;20431;-64
2022/10/20 01:11:30;;;;;;;4.17;2.50;;;7.20;99.90;;;;;;4197144;28;20522;-64
2022/10/20 01:13:47;;;;;;;5.65;3.03;;;7.20;99.90;;;;;;4205576;28;20032;-62
2022/10/20 01:16:14;;;;;;;4.27;2.63;;;7.20;99.90;;;;;;4213919;28;20036;-63
2022/10/20 01:18:21;;;;;;;4.27;2.97;;;7.30;99.90;;;;;;4208078;28;20474;-62
2022/10/20 01:20:31;;;;;;;5.37;2.50;;;7.20;99.90;;;;;;4212801;28;20036;-62
2022/10/20 01:22:47;;;;;;;4.43;2.22;;;7.20;99.90;;;;;;4212852;28;20036;-63
2022/10/20 01:25:14;;;;;;;6.63;2.73;;;7.20;99.90;;;;;;4208366;28;20048;-62
2022/10/20 01:27:38;;;;;;;2.33;2.13;;;7.20;99.90;;;;;;4212023;28;20028;-64
2022/10/20 01:29:52;;;;;;;4.33;2.67;;;7.10;99.90;;;;;;4182382;28;20037;-63
2022/10/20 01:32:23;;;;;;;5.00;2.33;;;7.10;99.90;;;;;;4196687;28;20086;-63
2022/10/20 01:35:05;;;;;;;3.23;2.50;;;7.10;99.90;;;;;;4196909;28;20401;-64
2022/10/20 01:37:30;;;;;;;5.37;2.43;;;7.10;99.90;;;;;;4195251;28;20082;-62
2022/10/20 01:39:46;;;;;;;6.03;2.53;;;7.10;99.90;;;;;;4212560;28;20036;-62
2022/10/20 01:42:00;;;;;;;8.17;2.10;;;7.00;99.90;;;;;;4194530;28;20044;-62
2022/10/20 01:44:03;;;;;;;3.77;2.63;;;7.00;99.90;;;;;;4211847;28;20052;-61
2022/10/20 01:46:08;;;;;;;3.40;2.03;;;7.00;99.90;;;;;;4213153;28;20472;-62
2022/10/20 01:48:12;;;;;;;7.23;2.67;;;7.00;99.90;;;;;;4211354;28;20499;-62
2022/10/20 01:50:15;;;;;;;5.10;2.60;;;7.00;99.90;;;;;;4212513;28;20062;-62
2022/10/20 01:52:17;;;;;;;4.37;2.80;;;7.00;99.90;;;;;;4211634;28;20043;-62
2022/10/20 01:54:29;;;;;;;4.47;1.73;;;7.00;99.90;;;;;;4213388;28;20074;-60
2022/10/20 01:56:41;;;;;;;5.97;2.30;;;7.00;99.90;;;;;;4212606;28;20066;-61
2022/10/20 01:58:54;;;;;;;4.47;2.07;;;7.00;99.90;;;;;;4211903;28;20044;-61
2022/10/20 02:01:01;;;;;;;3.33;1.87;;;7.00;99.90;;;;;;4195389;28;20032;-61
2022/10/20 02:03:21;;;;;;;5.67;2.20;;;6.90;99.90;;;;;;4196528;28;20024;-62
2022/10/20 02:05:34;;;;;;;5.03;1.87;;;6.90;99.90;;;;;;4194931;28;20044;-63
2022/10/20 02:07:35;;;;;;;3.60;1.90;;;6.90;99.90;;;;;;4196486;28;20473;-62
2022/10/20 02:09:47;;;;;;;3.27;1.73;;;6.90;99.90;;;;;;4194482;28;20041;-63
2022/10/20 02:12:00;;;;;;;3.70;2.07;;;6.90;99.90;;;;;;4195699;28;20090;-62
2022/10/20 02:14:01;;;;;;;3.23;1.93;;;6.90;99.90;;;;;;4194454;28;20044;-62
2022/10/20 02:16:11;;;;;;;4.07;2.10;;;6.90;99.90;;;;;;4196288;28;20048;-63
2022/10/20 02:18:17;;;;;;;2.72;1.83;;;6.90;99.90;;;;;;4195111;28;20032;-62
2022/10/20 02:20:18;;;;;;;4.70;2.07;;;6.90;99.90;;;;;;4195481;28;20025;-63
2022/10/20 02:22:21;;;;;;;2.47;1.63;;;6.90;99.90;;;;;;4194221;28;20024;-61
2022/10/20 02:24:27;;;;;;;4.07;1.90;;;6.90;99.90;;;;;;4206992;28;20081;-61
2022/10/20 02:26:31;;;;;;;5.10;1.97;;;6.90;99.90;;;;;;4211447;28;20176;-61
2022/10/20 02:28:34;;;;;;;2.93;2.00;;;6.90;99.90;;;;;;4200000;28;20419;-62
2022/10/20 02:30:37;;;;;;;4.63;1.97;;;6.90;99.90;;;;;;4211559;28;20031;-61
2022/10/20 02:32:41;;;;;;;3.80;1.87;;;6.90;99.90;;;;;;4204646;28;20381;-62
2022/10/20 02:34:42;;;;;;;4.53;1.93;;;6.90;99.90;;;;;;4211538;28;20519;-61
2022/10/20 02:36:44;;;;;;;6.83;1.90;;;6.90;99.90;;;;;;4211108;28;20028;-61
2022/10/20 02:38:45;;;;;;;2.90;1.80;;;6.80;99.90;;;;;;4200281;28;20059;-63
2022/10/20 02:40:46;;;;;;;3.47;1.70;;;6.90;99.90;;;;;;4194710;28;20082;-62
2022/10/20 02:42:48;;;;;;;7.07;2.37;;;6.80;99.90;;;;;;4177087;28;20037;-63
2022/10/20 02:44:49;;;;;;;2.63;2.03;;;6.80;99.90;;;;;;4193791;28;20078;-62
2022/10/20 02:46:50;;;;;;;6.67;1.80;;;6.80;99.90;;;;;;4195092;28;20446;-62
2022/10/20 02:48:51;;;;;;;5.07;1.60;;;6.80;99.90;;;;;;4194486;28;20048;-60
2022/10/20 02:50:52;;;;;;;4.13;1.67;;;6.80;99.90;;;;;;4195111;28;20036;-62
2022/10/20 02:52:53;;;;;;;4.13;1.90;;;6.80;99.90;;;;;;4193685;28;20094;-62
2022/10/20 02:54:54;;;;;;;3.77;2.63;;;6.80;99.90;;;;;;4194846;28;20520;-62
2022/10/20 02:56:56;;;;;;;6.00;1.67;;;6.80;99.90;;;;;;4194818;28;20032;-61
2022/10/20 02:58:57;;;;;;;3.00;1.60;;;6.80;99.90;;;;;;4195276;28;20557;-61
2022/10/20 03:00:58;;;;;;;2.13;1.30;;;6.80;99.90;;;;;;4193620;28;20078;-60
2022/10/20 03:02:59;;;;;;;6.80;1.73;;;6.80;99.90;;;;;;4204942;28;20085;-61
2022/10/20 03:05:00;;;;;;;3.77;1.93;;;6.80;99.90;;;;;;4211128;28;20028;-61
2022/10/20 03:07:02;;;;;;;7.07;1.97;;;6.80;99.90;;;;;;4210727;28;20028;-62
2022/10/20 03:09:04;;;;;;;1.93;1.40;;;6.80;99.90;;;;;;4211503;28;20050;-62
2022/10/20 03:11:05;;;;;;;4.77;1.53;;;6.80;99.90;;;;;;4211446;28;20024;-61
2022/10/20 03:13:06;;;;;;;4.33;2.00;;;6.80;99.90;;;;;;4210878;28;20044;-61
2022/10/20 03:15:08;;;;;;;2.30;1.60;;;6.80;99.90;;;;;;4210214;28;20036;-61
2022/10/20 03:17:09;;;;;;;5.50;2.30;;;6.80;99.90;;;;;;4208946;28;20048;-63
2022/10/20 03:19:10;;;;;;;7.30;2.43;;;6.70;99.90;;;;;;4210941;28;20048;-60
2022/10/20 03:21:11;;;;;;;3.40;1.90;;;6.70;99.90;;;;;;4195430;28;20438;-60
2022/10/20 03:23:12;;;;;;;3.47;2.10;;;6.60;99.90;;;;;;4194175;28;20707;-61
2022/10/20 03:25:13;;;;;;;2.33;1.80;;;6.60;99.90;;;;;;4202541;28;20097;-62
2022/10/20 03:27:14;;;;;;;4.37;2.00;;;6.50;99.90;;;;;;4210148;28;20040;-61
2022/10/20 03:29:16;;;;;;;8.73;2.43;;;6.50;99.90;;;;;;4203736;28;20086;-61
2022/10/20 03:31:17;;;;;;;4.80;2.87;;;6.40;99.90;;;;;;4193970;28;20033;-62
2022/10/20 03:33:18;;;;;;;7.50;2.53;;;6.40;99.90;;;;;;4201261;28;20036;-61
2022/10/20 03:35:19;;;;;;;5.97;2.53;;;6.40;99.90;;;;;;4209569;28;20488;-61
2022/10/20 03:37:20;;;;;;;8.23;2.63;;;6.30;99.90;;;;;;4211360;28;20128;-61
2022/10/20 03:39:21;;;;;;;4.80;2.13;;;6.30;99.90;;;;;;4192236;28;20044;-60
2022/10/20 03:41:23;;;;;;;3.87;2.40;;;6.30;99.90;;;;;;4210477;28;20032;-61
2022/10/20 03:43:25;;;;;;;3.87;2.23;;;6.30;99.90;;;;;;4209638;28;20097;-61
2022/10/20 03:45:26;;;;;;;4.00;2.27;;;6.20;99.90;;;;;;4203587;28;20074;-61
2022/10/20 03:47:27;;;;;;;5.57;2.47;;;6.20;99.90;;;;;;4199686;28;20889;-62
2022/10/20 03:49:28;;;;;;;3.57;2.20;;;6.20;99.90;;;;;;4175232;28;20083;-60
2022/10/20 03:51:29;;;;;;;6.33;2.30;;;6.20;99.90;;;;;;4194761;28;20025;-62
2022/10/20 03:53:31;;;;;;;7.03;2.50;;;6.20;99.90;;;;;;4193739;28;20029;-62
2022/10/20 03:55:32;;;;;;;5.93;2.30;;;6.20;99.90;;;;;;4194597;28;20054;-62
2022/10/20 03:57:33;;;;;;;4.40;2.47;;;6.20;99.90;;;;;;4198958;28;20024;-63
2022/10/20 03:59:34;;;;;;;4.37;2.40;;;6.10;99.90;;;;;;4210384;28;20044;-63
2022/10/20 04:01:35;;;;;;;5.13;2.07;;;6.10;99.90;;;;;;4195024;28;20044;-63
2022/10/20 04:03:36;;;;;;;2.97;2.17;;;6.10;99.90;;;;;;4194634;28;20020;-62
2022/10/20 04:05:37;;;;;;;5.90;3.27;;;6.10;99.90;;;;;;4202248;28;20052;-63
2022/10/20 04:07:39;;;;;;;6.87;2.30;;;6.00;99.90;;;;;;4193291;28;20106;-61
2022/10/20 04:09:40;;;;;;;6.83;2.50;;;6.00;99.90;;;;;;4193225;28;20050;-62
2022/10/20 04:11:41;;;;;;;2.77;2.07;;;6.00;99.90;;;;;;4193809;28;20472;-61
2022/10/20 04:13:42;;;;;;;3.73;2.33;;;6.00;99.90;;;;;;4195962;28;20370;-61
2022/10/20 04:15:43;;;;;;;5.07;2.60;;;5.90;99.90;;;;;;4192921;28;20139;-61
2022/10/20 04:17:44;;;;;;;4.77;2.33;;;6.00;99.90;;;;;;4180989;28;20484;-63
2022/10/20 04:19:46;;;;;;;4.93;2.90;;;5.90;99.90;;;;;;4209703;28;20104;-62
2022/10/20 04:21:47;;;;;;;3.33;2.50;;;5.90;99.90;;;;;;4213865;28;20036;-62
2022/10/20 04:23:48;;;;;;;5.37;3.20;;;5.90;99.90;;;;;;4212406;28;20110;-62
2022/10/20 04:25:49;;;;;;;6.27;3.30;;;5.90;99.90;;;;;;4214357;28;20070;-61
2022/10/20 04:27:50;;;;;;;6.67;2.73;;;5.90;99.90;;;;;;4213056;28;20024;-62
2022/10/20 04:29:51;;;;;;;7.73;3.50;;;5.90;99.90;;;;;;4213969;28;20036;-62
2022/10/20 04:31:52;;;;;;;6.97;3.37;;;5.80;99.90;;;;;;4212437;28;20036;-62
2022/10/20 04:33:53;;;;;;;10.33;3.23;;;5.80;99.90;;;;;;4214275;28;20093;-65
2022/10/20 04:36:03;;;;;;;6.20;2.57;;;5.80;99.90;;;;;;4213167;28;20028;-64
2022/10/20 04:38:04;;;;;;;7.33;2.83;;;5.70;99.90;;;;;;4207204;28;20439;-64
2022/10/20 04:40:06;;;;;;;8.67;3.00;;;5.70;99.90;;;;;;4210927;28;20449;-63
2022/10/20 04:42:07;;;;;;;6.40;2.97;;;5.70;99.90;;;;;;4205718;28;20028;-63
2022/10/20 04:44:09;;;;;;;5.03;2.93;;;5.70;99.90;;;;;;4190808;28;20055;-60
2022/10/20 04:46:10;;;;;;;6.40;3.40;;;5.70;99.90;;;;;;4191917;28;20057;-63
2022/10/20 04:48:11;;;;;;;6.80;4.10;;;5.70;99.90;;;;;;4196498;28;20098;-62
2022/10/20 04:50:13;;;;;;;8.60;3.50;;;5.60;99.90;;;;;;4196167;28;20070;-63
2022/10/20 04:52:14;;;;;;;7.93;3.40;;;5.60;99.90;;;;;;4196735;28;20041;-62
2022/10/20 04:54:15;;;;;;;5.57;2.77;;;5.60;99.90;;;;;;4195968;28;20036;-61
2022/10/20 04:56:19;;;;;;;8.30;3.47;;;5.60;99.90;;;;;;4196542;28;20480;-60
2022/10/20 04:58:20;;;;;;;9.70;3.50;;;5.60;99.90;;;;;;4196189;28;20431;-61
2022/10/20 05:00:22;;;;;;;4.93;3.37;;;5.60;99.90;;;;;;4196566;28;21782;-62
2022/10/20 05:02:23;;;;;;;5.53;2.93;;;5.80;99.90;;;;;;4211187;28;20040;-62
2022/10/20 05:04:24;;;;;;;6.77;3.23;;;6.00;99.90;;;;;;4205693;28;20032;-61
2022/10/20 05:06:30;;;;;;;7.97;2.80;;;6.20;99.90;;;;;;4201594;28;20114;-62
2022/10/20 05:08:32;;;;;;;6.47;2.40;;;6.50;99.90;;;;;;4195048;28;20070;-62
2022/10/20 05:10:33;;;;;;;6.20;2.70;;;6.70;99.90;;;;;;4195132;28;20036;-62
2022/10/20 05:12:34;;;;;;;6.27;3.03;;;6.90;99.90;;;;;;4196264;28;20032;-62
2022/10/20 05:14:35;;;;;;;11.90;2.80;;;7.20;99.90;;;;;;4194985;28;20156;-61
2022/10/20 05:16:36;;;;;;;4.50;2.43;;;7.50;99.90;;;;;;4194752;28;20097;-62
2022/10/20 05:18:39;;;;;;;5.27;2.90;;;7.70;99.90;;;;;;4196318;28;20062;-63
2022/10/20 05:20:40;;;;;;;4.80;2.60;;;8.10;99.90;;;;;;4195576;28;20037;-63
2022/10/20 05:22:41;;;;;;;10.33;3.33;;;8.40;99.90;;;;;;4195782;28;20036;-63
2022/10/20 05:24:42;;;;;;;6.83;3.33;;;8.80;99.90;;;;;;4193961;28;20140;-63
2022/10/20 05:26:43;;;;;;;5.63;2.83;;;9.20;99.90;;;;;;4196368;28;20032;-61
2022/10/20 05:28:47;;;;;;;4.40;2.53;;;9.70;99.90;;;;;;4195390;28;20081;-62
2022/10/20 05:30:48;;;;;;;4.33;2.57;;;10.10;99.90;;;;;;4195710;28;20091;-61
2022/10/20 05:32:49;;;;;;;5.10;2.63;;;10.30;99.90;;;;;;4194153;28;20550;-62
2022/10/20 05:34:50;;;;;;;9.57;2.87;;;10.50;99.90;;;;;;4196685;28;20059;-61
2022/10/20 05:36:53;;;;;;;5.87;3.27;;;10.50;99.90;;;;;;4194656;28;20032;-62
2022/10/20 05:38:55;;;;;;;7.53;2.87;;;10.40;99.90;;;;;;4195744;28;20041;-64
2022/10/20 05:41:08;;;;;;;6.37;3.60;;;10.50;99.90;;;;;;4195449;28;20025;-61
2022/10/20 05:43:09;;;;;;;6.90;3.20;;;10.90;99.90;;;;;;4195342;28;20422;-61
2022/10/20 05:45:10;;;;;;;10.73;3.50;;;10.80;99.90;;;;;;4194533;28;20494;-62
2022/10/20 05:47:11;;;;;;;6.67;3.23;;;10.90;99.90;;;;;;4195780;28;20024;-62
2022/10/20 05:49:14;;;;;;;4.70;2.40;;;11.20;99.90;;;;;;4195140;28;20472;-62
2022/10/20 05:51:17;;;;;;;7.33;2.40;;;11.30;99.90;;;;;;4194635;28;20094;-61
2022/10/20 05:53:19;;;;;;;6.70;2.10;;;11.70;99.90;;;;;;4177200;28;20029;-60
2022/10/20 05:55:20;;;;;;;5.80;2.43;;;12.00;99.90;;;;;;4177030;28;20033;-61
2022/10/20 05:57:21;;;;;;;6.30;2.17;;;12.20;99.90;;;;;;4196131;28;20094;-62
2022/10/20 05:59:22;;;;;;;4.75;2.00;;;12.30;99.90;;;;;;4194862;28;20441;-61
2022/10/20 06:01:38;;;;;;;5.40;2.17;;;12.30;99.90;;;;;;4194897;28;20432;-62
2022/10/20 06:03:39;;;;;;;7.10;2.40;;;12.30;99.90;;;;;;4194773;28;20032;-62
2022/10/20 06:05:40;;;;;;;6.88;2.25;;;12.50;99.90;;;;;;4195643;28;20170;-61
2022/10/20 06:07:41;;;;;;;9.65;2.13;;;12.90;99.90;;;;;;4194351;28;20041;-62
2022/10/20 06:09:42;;;;;;;7.10;2.38;;;13.10;99.90;;;;;;4195173;28;20048;-63
2022/10/20 06:11:43;;;;;;;5.05;1.83;;;13.20;99.90;;;;;;4194892;28;20480;-61
2022/10/20 06:13:45;;;;;;;5.38;2.05;;;13.00;99.90;;;;;;4195932;28;20020;-61
2022/10/20 06:15:48;;;;;;;7.53;1.73;;;13.30;99.90;;;;;;4194115;28;20044;-62
2022/10/20 06:17:50;;;;;;;5.90;1.50;;;13.60;99.90;;;;;;4196101;28;20028;-61
2022/10/20 06:19:51;;;;;;;4.00;1.10;;;13.30;99.90;;;;;;4193940;28;20033;-62
2022/10/20 06:21:53;;;;;;;1.77;1.15;;;13.10;99.90;;;;;;4195493;28;20028;-61
2022/10/20 06:23:54;;;;;;;3.92;1.25;;;12.90;99.90;;;;;;4194220;28;20436;-62
2022/10/20 06:25:59;;;;;;;3.35;1.33;;;12.90;99.90;;;;;;4195327;28;20041;-61
2022/10/20 06:28:00;;;;;;;4.63;1.33;;;13.00;99.90;;;;;;4195689;28;20357;-62
2022/10/20 06:30:02;;;;;;;4.03;1.50;;;12.90;99.90;;;;;;4195036;28;20029;-61
2022/10/20 06:32:03;;;;;;;3.20;1.40;;;12.70;99.90;;;;;;4195332;28;20091;-63
2022/10/20 06:34:06;;;;;;;4.77;1.20;;;12.60;99.90;;;;;;4194353;28;20090;-62
2022/10/20 06:36:08;;;;;;;5.83;1.97;;;12.60;99.90;;;;;;4194376;28;20040;-60
2022/10/20 06:38:09;;;;;;;3.13;1.67;;;12.80;99.90;;;;;;4193708;28;20032;-62
2022/10/20 06:40:11;;;;;;;4.00;1.20;;;13.00;99.90;;;;;;4195560;28;20016;-61
2022/10/20 06:42:12;;;;;;;4.60;1.10;;;13.40;99.90;;;;;;4194184;28;20174;-62
2022/10/20 06:44:13;;;;;;;3.40;1.17;;;13.60;99.90;;;;;;4194688;28;20041;-61
2022/10/20 06:46:17;;;;;;;3.77;1.13;;;13.80;99.50;;;;;;4193914;28;20481;-61
2022/10/20 06:48:18;;;;;;;1.80;0.90;;;14.00;99.00;;;;;;4195484;28;20445;-61
2022/10/20 06:50:19;;;;;;;6.77;1.20;;;14.20;98.60;;;;;;4194020;28;20036;-62
2022/10/20 06:52:20;;;;;;;5.10;0.70;;;14.40;98.10;;;;;;4194574;28;20542;-61
2022/10/20 06:54:21;;;;;;;4.27;0.80;;;14.50;97.70;;;;;;4194284;28;20074;-61
2022/10/20 06:56:24;;;;;;;4.00;0.50;;;14.40;97.10;;;;;;4194724;28;20094;-63
2022/10/20 06:58:26;;;;;;;2.50;0.60;;;14.00;96.90;;;;;;4194580;28;20102;-61
2022/10/20 07:00:27;;;;;;;1.13;0.60;;;13.90;96.90;;;;;;4194604;28;20082;-61
2022/10/20 07:02:28;;;;;;;2.97;0.53;;;13.70;96.70;;;;;;4194544;28;20427;-61
2022/10/20 07:04:29;;;;;;;5.27;0.37;;;13.60;96.70;;;;;;4194002;28;20077;-61
2022/10/20 07:06:33;;;;;;;2.47;0.40;;;13.60;96.60;;;;;;4194477;28;20064;-62
2022/10/20 07:08:35;;;;;;;1.43;0.80;;;13.50;96.60;;;;;;4193842;28;20059;-62
2022/10/20 07:10:36;;;;;;;2.03;0.43;;;13.40;96.50;;;;;;4194093;28;20527;-62
2022/10/20 07:12:38;;;;;;;4.50;0.50;;;13.40;96.40;;;;;;4193028;28;20032;-62
2022/10/20 07:14:39;;;;;;;3.10;0.50;;;13.30;96.60;;;;;;4193823;28;20040;-61
2022/10/20 07:16:40;;;;;;;3.97;0.30;;;13.10;96.20;;;;;;4193562;28;20121;-62
2022/10/20 07:18:41;;;;;;;1.13;0.30;;;12.90;96.40;;;;;;4194947;28;20546;-62
2022/10/20 07:20:43;;;;;;;5.03;0.70;;;12.70;96.40;;;;;;4192973;28;20040;-62
2022/10/20 07:22:44;;;;;;;1.33;0.30;;;12.60;96.60;;;;;;4194172;28;20036;-61
2022/10/20 07:24:45;;;;;;;1.90;0.30;;;12.60;96.60;;;;;;4192728;28;20118;-63
2022/10/20 07:26:46;;;;;;;1.10;0.40;;;12.80;96.90;;;;;;4194186;28;20040;-62
2022/10/20 07:28:50;;;;;;;3.80;0.70;;;12.70;96.50;;;;;;4193388;28;20492;-62
2022/10/20 07:30:51;;;;;;;1.57;0.50;;;12.70;96.60;;;;;;4193650;28;20044;-62
2022/10/20 07:32:52;;;;;;;0.50;0.30;;;12.90;96.60;;;;;;4193617;28;20102;-60
2022/10/20 07:34:54;;;;;;;0.73;0.27;;;13.00;96.30;;;;;;4193402;28;20040;-63
2022/10/20 07:36:56;;;;;;;2.77;0.87;;;12.70;96.10;;;;;;4194198;28;20028;-62
2022/10/20 07:38:59;;;;;;;4.63;0.70;;;12.70;96.30;;;;;;4193615;28;20032;-61
2022/10/20 07:41:02;;;;;;;1.73;0.57;;;12.60;96.30;;;;;;4193839;28;20500;-62
2022/10/20 07:43:03;;;;;;;0.57;0.37;;;12.60;96.10;;;;;;4192870;28;20037;-62
2022/10/20 07:45:05;;;;;;;3.00;0.60;;;12.40;96.30;;;;;;4194674;28;20033;-62
2022/10/20 07:47:06;;;;;;;1.57;0.50;;;12.30;96.40;;;;;;4192986;28;20020;-62
2022/10/20 07:49:07;;;;;;;0.80;0.50;;;12.40;96.50;;;;;;4194501;28;20117;-63
2022/10/20 07:51:24;;;;;;;2.70;0.57;;;12.30;96.40;;;;;;4193536;28;20488;-61
2022/10/20 07:53:25;;;;;;;1.53;0.60;;;12.30;96.10;;;;;;4193744;28;20036;-63
2022/10/20 07:55:26;;;;;;;1.87;0.50;;;12.20;96.40;;;;;;4192577;28;20507;-61
2022/10/20 07:57:27;;;;;;;1.87;0.60;;;12.20;96.50;;;;;;4194803;28;20079;-63
2022/10/20 07:59:28;;;;;;;2.27;0.30;;;12.20;96.60;;;;;;4192767;28;20466;-63
2022/10/20 08:01:30;;;;;;;4.90;1.17;;;12.10;96.70;;;;;;4194320;28;20498;-62
2022/10/20 08:03:31;;;;;;;4.27;0.73;;;12.10;96.70;;;;;;4192576;28;20040;-62
2022/10/20 08:05:32;;;;;;;1.70;0.47;;;11.90;97.00;;;;;;4193931;28;20033;-62
2022/10/20 08:07:34;;;;;;;4.43;0.43;;;11.90;96.80;;;;;;4193449;28;20058;-63
2022/10/20 08:09:35;;;;;;;0.57;0.37;;;11.80;97.10;;;;;;4193841;28;20421;-62
2022/10/20 08:11:37;;;;;;;7.20;0.60;;;11.80;97.10;;;;;;4193234;28;20055;-62
2022/10/20 08:13:39;;;;;;;6.33;0.70;;;11.90;97.10;;;;;;4193311;28;20058;-62
2022/10/20 08:15:40;;;;;;;1.57;0.60;;;12.00;96.80;;;;;;4193188;28;20086;-61
2022/10/20 08:17:42;;;;;;;4.60;0.80;;;12.00;96.60;;;;;;4192342;28;20078;-63
2022/10/20 08:19:43;;;;;;;1.93;0.43;;;12.00;96.80;;;;;;4193123;28;20115;-61
2022/10/20 08:21:44;;;;;;;2.57;0.60;;;12.10;96.60;;;;;;4174738;28;20150;-61
2022/10/20 08:23:47;;;;;;;1.87;0.40;;;12.10;96.60;;;;;;4194243;28;20105;-62
2022/10/20 08:25:53;;;;;;;2.27;0.40;;;12.30;96.50;;;;;;4192895;28;20040;-63
2022/10/20 08:27:54;;;;;;;4.77;1.03;;;12.50;96.40;;;;;;4194333;28;20024;-61
2022/10/20 08:29:55;;;;;;;2.40;0.70;;;12.60;96.20;;;;;;4192951;28;20101;-62
2022/10/20 08:31:56;;;;;;;3.90;0.77;;;12.50;95.90;;;;;;4194134;28;20522;-62
2022/10/20 08:33:58;;;;;;;2.87;0.60;;;12.50;96.00;;;;;;4192948;28;20032;-61
2022/10/20 08:36:08;;;;;;;1.90;0.40;;;12.40;96.10;;;;;;4193839;28;20028;-61
2022/10/20 08:38:09;;;;;;;3.97;0.57;;;12.30;96.10;;;;;;4192937;28;20017;-62
2022/10/20 08:40:16;;;;;;;5.70;0.60;;;12.40;96.20;;;;;;4193736;28;20040;-61
2022/10/20 08:42:18;;;;;;;0.77;0.50;;;12.30;96.30;;;;;;4191833;28;20033;-61
2022/10/20 08:44:25;;;;;;;0.53;0.30;;;12.40;96.30;;;;;;4192772;28;20098;-63
2022/10/20 08:46:32;;;;;;;1.93;0.30;;;12.70;96.00;;;;;;4192901;28;20439;-61
2022/10/20 08:48:33;;;;;;;0.73;0.40;;;12.70;95.70;;;;;;4193005;28;20618;-62
2022/10/20 08:50:36;;;;;;;3.80;0.60;;;12.60;95.60;;;;;;4193479;28;20471;-62
2022/10/20 08:52:40;;;;;;;0.67;0.50;;;12.60;95.80;;;;;;4192270;28;20032;-61
2022/10/20 08:54:41;;;;;;;0.70;0.30;;;12.50;95.40;;;;;;4193293;28;20102;-62
2022/10/20 08:56:43;;;;;;;2.77;0.40;;;12.50;95.70;;;;;;4192242;28;20053;-62
2022/10/20 08:58:45;;;;;;;1.70;0.70;;;12.60;95.60;;;;;;4193913;28;20056;-62
2022/10/20 09:00:47;;;;;;;0.90;0.27;;;12.60;95.40;;;;;;4195575;28;20423;-62
2022/10/20 09:02:50;;;;;;;3.90;0.90;;;12.60;95.20;;;;;;4196257;28;20052;-62
2022/10/20 09:04:58;;;;;;;1.07;0.47;;;12.70;95.00;;;;;;4196009;28;20029;-62
2022/10/20 09:07:07;;;;;;;1.10;0.23;;;12.60;94.80;;;;;;4196480;28;20094;-61
2022/10/20 09:09:17;;;;;;;2.10;0.30;;;12.60;94.90;;;;;;4194965;28;20041;-62
2022/10/20 09:11:27;;;;;;;3.85;0.30;;;12.60;94.10;;;;;;4196468;28;20060;-63
2022/10/20 09:13:31;;;;;;;1.80;0.60;;;12.60;93.80;;;;;;4195544;28;20102;-62
2022/10/20 09:15:32;;;;;;;2.67;0.60;;;12.60;93.40;;;;;;4196741;28;20055;-63
2022/10/20 09:17:34;;;;;;;11.73;1.50;;;12.60;93.50;;;;;;4194547;28;20098;-62
2022/10/20 09:19:35;;;;;;;3.03;0.40;;;12.60;93.70;;;;;;4195861;28;20090;-63
2022/10/20 09:21:38;;;;;;;2.40;0.37;;;12.60;93.60;;;;;;4194725;28;20032;-63
2022/10/20 09:23:42;;;;;;;5.40;0.67;;;12.20;93.70;;;;;;4196400;28;20074;-63
2022/10/20 09:25:44;;;;;;;21.53;2.20;;;11.90;93.60;;;;;;4194405;28;20048;-62
2022/10/20 09:27:46;;;;;;;8.27;1.80;;;11.70;93.90;;;;;;4195714;28;20404;-62
2022/10/20 09:29:47;;;;;;;0.63;0.30;;;11.80;94.40;;;;;;4195774;28;20078;-63
2022/10/20 09:31:51;;;;;;;1.63;0.50;;;11.90;93.90;;;;;;4195264;28;20078;-63
2022/10/20 09:33:52;;;;;;;22.80;2.77;;;11.70;94.50;;;;;;4195833;28;20067;-62
2022/10/20 09:35:57;;;;;;;4.33;0.97;;;11.70;94.40;;;;;;4195688;28;20415;-62
2022/10/20 09:38:09;;;;;;;3.30;0.50;;;11.80;94.60;;;;;;4195416;28;20102;-63
2022/10/20 09:40:14;;;;;;;0.87;0.60;;;11.70;94.40;;;;;;4195615;28;20472;-62
2022/10/20 09:42:27;;;;;;;4.47;0.30;;;11.50;94.80;;;;;;4194998;28;20098;-62
2022/10/20 09:44:38;;;;;;;0.63;0.30;;;11.60;94.40;;;;;;4195422;28;20481;-62
2022/10/20 09:46:47;;;;;;;3.42;0.40;;;11.70;94.60;;;;;;4195368;28;20041;-62
2022/10/20 09:48:50;;;;;;;1.80;0.80;;;11.70;94.10;;;;;;4194328;28;20049;-62
2022/10/20 09:50:54;;;;;;;2.73;0.50;;;11.80;94.40;;;;;;4196023;28;20032;-61
2022/10/20 09:52:58;;;;;;;1.20;0.20;;;11.80;94.50;;;;;;4195350;28;20141;-61
2022/10/20 09:55:23;;;;;;;1.70;0.40;;;11.90;94.10;;;;;;4196358;28;20016;-62
2022/10/20 09:57:25;;;;;;;0.73;0.57;;;11.90;94.00;;;;;;4195258;28;20427;-62
2022/10/20 09:59:33;;;;;;;1.93;0.50;;;12.00;94.30;;;;;;4195401;28;20040;-61
2022/10/20 10:01:50;;;;;;;0.50;0.20;;;12.20;94.20;;;;;;4194274;28;20506;-62
2022/10/20 10:03:58;;;;;;;0.67;0.30;;;12.40;94.10;;;;;;4195534;28;20036;-62
2022/10/20 10:05:59;;;;;;;1.53;0.30;;;12.40;94.00;;;;;;4194066;28;20045;-61
2022/10/20 10:08:01;;;;;;;1.53;0.40;;;12.20;93.90;;;;;;4195430;28;20447;-62
2022/10/20 10:10:17;;;;;;;0.83;0.40;;;12.10;93.90;;;;;;4175861;28;20091;-61
2022/10/20 10:12:18;;;;;;;2.17;0.40;;;12.00;93.40;;;;;;4195616;28;20025;-62
2022/10/20 10:14:22;;;;;;;1.77;0.83;;;11.90;93.80;;;;;;4194664;28;20025;-61
2022/10/20 10:16:23;;;;;;;2.33;0.70;;;11.90;93.90;;;;;;4177313;28;20111;-61
2022/10/20 10:18:24;;;;;;;5.20;0.40;;;12.00;94.20;;;;;;4193583;28;20572;-61
2022/10/20 10:20:34;;;;;;;7.73;0.87;;;12.00;93.60;;;;;;4195269;28;20044;-61
2022/10/20 10:22:36;;;;;;;5.68;1.02;;;11.70;93.30;;;;;;4194081;28;20037;-62
2022/10/20 10:24:46;;;;;;;2.53;0.70;;;11.60;93.90;;;;;;4195565;28;20101;-61
2022/10/20 10:26:53;;;;;;;4.10;0.73;;;11.70;94.10;;;;;;4176412;28;20079;-61
2022/10/20 10:28:58;;;;;;;1.33;0.77;;;11.90;94.10;;;;;;4195665;28;20024;-61
2022/10/20 10:31:21;;;;;;;1.53;0.70;;;11.90;94.20;;;;;;4194394;28;20105;-61
2022/10/20 10:33:26;;;;;;;1.83;0.50;;;12.10;94.00;;;;;;4195620;28;20055;-61
2022/10/20 10:35:42;;;;;;;1.37;0.60;;;12.10;93.90;;;;;;4194151;28;20435;-61
2022/10/20 10:37:44;;;;;;;6.70;0.67;;;12.20;93.80;;;;;;4194619;28;20098;-62
2022/10/20 10:39:46;;;;;;;2.67;0.67;;;12.20;93.50;;;;;;4194498;28;20025;-61
2022/10/20 10:42:06;;;;;;;5.07;0.40;;;12.10;93.60;;;;;;4195225;28;20376;-61
2022/10/20 10:44:07;;;;;;;1.92;0.32;;;12.00;93.40;;;;;;4192910;28;20060;-61
2022/10/20 10:46:19;;;;;;;1.10;0.47;;;12.00;93.90;;;;;;4195009;28;20033;-62
2022/10/20 10:48:52;;;;;;;2.07;0.50;;;12.00;93.30;;;;;;4193935;28;20016;-63